createdAt,value
2018-07-26T00:04:18.740Z,62.10
2018-07-26T00:09:12.103Z,62.40
2018-07-26T00:14:05.373Z,62.70
2018-07-26T00:18:59.624Z,63.30
2018-07-26T00:23:52.740Z,63.80
2018-07-26T00:28:46.196Z,64.20
2018-07-26T00:33:40.451Z,64.80
2018-07-26T00:38:33.421Z,65.10
2018-07-26T00:43:28.882Z,65.50
2018-07-26T00:48:21.537Z,66.20
2018-07-26T00:53:17.942Z,66.50
2018-07-26T00:58:10.380Z,66.70
2018-07-26T01:03:03.881Z,67.40
2018-07-26T01:08:00.170Z,67.60
2018-07-26T01:12:55.743Z,67.50
2018-07-26T01:17:51.420Z,67.70
2018-07-26T01:22:44.385Z,68.00
2018-07-26T01:27:40.523Z,68.40
2018-07-26T01:32:36.067Z,68.60
2018-07-26T01:37:31.508Z,69.20
2018-07-26T01:42:29.123Z,69.40
2018-07-26T01:47:25.820Z,69.80
2018-07-26T01:52:21.176Z,70.00
2018-07-26T01:57:16.724Z,70.70
2018-07-26T02:02:12.097Z,71.20
2018-07-26T02:07:07.468Z,71.70
2018-07-26T02:12:04.140Z,72.10
2018-07-26T02:16:59.775Z,72.60
2018-07-26T02:21:55.248Z,73.20
2018-07-26T02:26:50.801Z,74.00
2018-07-26T02:31:46.447Z,74.80
2018-07-26T02:36:41.213Z,75.90
2018-07-26T02:41:36.958Z,76.60
2018-07-26T02:46:32.603Z,78.20
2018-07-26T02:51:30.005Z,78.80
2018-07-26T02:56:24.086Z,79.60
2018-07-26T03:01:21.986Z,80.30
2018-07-26T03:06:18.212Z,80.90
2018-07-26T03:11:16.154Z,81.30
2018-07-26T03:16:11.430Z,81.50
2018-07-26T03:21:07.487Z,81.80
2018-07-26T03:26:02.753Z,81.80
2018-07-26T03:31:00.238Z,82.40
2018-07-26T03:35:57.615Z,82.70
2018-07-26T03:41:01.145Z,83.30
2018-07-26T03:46:20.594Z,83.50
2018-07-26T03:51:23.977Z,83.70
2018-07-26T03:56:24.757Z,83.40
2018-07-26T04:01:24.432Z,84.00
2018-07-26T04:06:26.192Z,83.30
2018-07-26T04:11:27.498Z,83.90
2018-07-26T04:16:28.520Z,84.50
2018-07-26T04:21:25.061Z,84.50
2018-07-26T04:26:22.089Z,84.40
2018-07-26T04:31:19.292Z,84.50
2018-07-26T04:36:17.465Z,84.70
2018-07-26T04:41:12.698Z,85.00
2018-07-26T04:46:08.391Z,85.10
2018-07-26T04:51:03.933Z,85.40
2018-07-26T04:55:59.587Z,85.20
2018-07-26T05:00:55.147Z,85.30
2018-07-26T05:05:50.969Z,84.60
2018-07-26T05:10:48.073Z,83.70
2018-07-26T05:15:43.380Z,82.60
2018-07-26T05:20:39.440Z,82.00
2018-07-26T05:25:35.024Z,81.20
2018-07-26T05:30:30.685Z,80.10
2018-07-26T05:35:26.472Z,79.80
2018-07-26T05:40:23.292Z,79.10
2018-07-26T05:45:17.829Z,77.90
2018-07-26T05:50:13.448Z,77.00
2018-07-26T05:55:09.294Z,76.40
2018-07-26T06:00:02.949Z,74.70
2018-07-26T06:04:58.929Z,73.00
2018-07-26T06:09:54.704Z,72.50
2018-07-26T06:14:50.527Z,70.70
2018-07-26T06:19:46.791Z,70.40
2018-07-26T06:24:42.299Z,70.60
2018-07-26T06:29:38.990Z,70.40
2018-07-26T06:34:31.400Z,69.20
2018-07-26T06:39:25.020Z,68.10
2018-07-26T06:44:18.424Z,66.10
2018-07-26T06:49:12.974Z,65.00
2018-07-26T06:54:06.061Z,62.80
2018-07-26T06:58:59.687Z,61.00
2018-07-26T07:03:53.899Z,60.40
2018-07-26T07:08:47.483Z,58.30
2018-07-26T07:13:40.799Z,57.80
2018-07-26T07:18:34.448Z,56.90
2018-07-26T07:23:28.004Z,55.90
2018-07-26T07:28:24.689Z,54.90
2018-07-26T07:33:18.095Z,53.10
2018-07-26T07:38:12.969Z,51.30
2018-07-26T07:43:06.694Z,50.70
2018-07-26T07:48:00.367Z,50.40
2018-07-26T07:52:55.408Z,49.50
2018-07-26T07:57:50.300Z,49.00
2018-07-26T08:02:44.492Z,49.40
2018-07-26T08:07:37.695Z,49.70
2018-07-26T08:12:32.307Z,50.30
2018-07-26T08:17:25.344Z,50.20
2018-07-26T08:22:18.968Z,49.70
2018-07-26T08:27:13.368Z,49.40
2018-07-26T08:32:07.631Z,50.70
2018-07-26T08:37:00.926Z,49.00
2018-07-26T08:41:54.820Z,48.50
2018-07-26T08:46:49.954Z,47.90
2018-07-26T08:51:45.112Z,46.40
2018-07-26T08:56:38.997Z,42.10
2018-07-26T09:01:34.151Z,42.00
2018-07-26T09:06:29.004Z,38.80
2018-07-26T09:11:24.995Z,36.50
2018-07-26T09:16:18.737Z,35.70
2018-07-26T09:21:12.724Z,34.20
2018-07-26T09:26:06.944Z,33.60
2018-07-26T09:31:01.260Z,32.80
2018-07-26T09:35:55.354Z,29.80
2018-07-26T09:40:49.190Z,29.60
2018-07-26T09:45:44.722Z,29.90
2018-07-26T09:50:39.911Z,29.10
2018-07-26T09:55:34.719Z,28.80
2018-07-26T10:00:28.749Z,29.90
2018-07-26T10:05:22.920Z,29.50
2018-07-26T10:10:18.807Z,28.20
2018-07-26T10:15:15.269Z,27.80
2018-07-26T10:20:10.281Z,27.60
2018-07-26T10:25:05.299Z,27.70
2018-07-26T10:30:00.397Z,28.40
2018-07-26T10:34:55.717Z,30.30
2018-07-26T10:39:51.009Z,29.10
2018-07-26T10:44:43.872Z,27.00
2018-07-26T10:49:39.503Z,28.70
2018-07-26T10:54:35.809Z,26.90
2018-07-26T10:59:31.077Z,26.50
2018-07-26T11:04:26.823Z,25.80
2018-07-26T11:09:22.411Z,25.30
2018-07-26T11:14:18.609Z,24.30
2018-07-26T11:19:14.105Z,23.30
2018-07-26T11:24:11.379Z,23.40
2018-07-26T11:29:06.614Z,22.90
2018-07-26T11:34:20.821Z,22.80
2018-07-26T11:39:18.757Z,22.50
2018-07-26T11:49:36.155Z,23.00
2018-07-26T11:54:33.453Z,22.60
2018-07-26T11:59:45.621Z,21.60
2018-07-26T12:04:52.159Z,21.40
2018-07-26T12:09:47.661Z,21.20
2018-07-26T12:14:44.190Z,20.70
2018-07-26T12:19:39.895Z,20.50
2018-07-26T12:24:36.594Z,20.20
2018-07-26T12:29:34.841Z,20.90
2018-07-26T12:35:37.505Z,21.90
2018-07-26T12:40:43.057Z,20.50
2018-07-26T12:45:40.100Z,20.80
2018-07-26T12:50:35.587Z,21.20
2018-07-26T12:55:32.096Z,22.00
2018-07-26T13:00:26.324Z,22.50
2018-07-26T13:05:26.977Z,24.30
2018-07-26T13:10:25.955Z,24.20
2018-07-26T13:15:19.053Z,25.20
2018-07-26T13:20:20.668Z,25.80
2018-07-26T13:25:19.857Z,26.30
2018-07-26T13:30:15.072Z,24.40
2018-07-26T13:35:12.312Z,23.40
2018-07-26T13:40:08.228Z,21.90
2018-07-26T13:50:20.063Z,20.80
2018-07-26T13:55:15.867Z,20.70
2018-07-26T14:00:16.219Z,21.70
2018-07-26T14:05:11.233Z,20.70
2018-07-26T14:10:06.658Z,21.00
2018-07-26T14:15:04.183Z,21.10
2018-07-26T14:20:00.886Z,20.80
2018-07-26T14:24:56.198Z,21.30
2018-07-26T14:29:54.119Z,21.70
2018-07-26T14:34:48.991Z,21.80
2018-07-26T14:39:44.362Z,21.30
2018-07-26T14:44:40.516Z,21.00
2018-07-26T14:49:40.910Z,20.70
2018-07-26T14:54:36.621Z,20.40
2018-07-26T14:59:31.237Z,21.00
2018-07-26T15:04:26.095Z,22.30
2018-07-26T15:09:21.000Z,22.00
2018-07-26T15:14:20.195Z,21.80
2018-07-26T15:19:19.562Z,22.90
2018-07-26T15:24:16.484Z,22.20
2018-07-26T15:29:13.909Z,22.00
2018-07-26T15:34:09.189Z,21.70
2018-07-26T15:39:04.286Z,21.60
2018-07-26T15:43:59.117Z,21.80
2018-07-26T15:48:53.948Z,22.70
2018-07-26T15:53:49.535Z,24.00
2018-07-26T15:58:45.610Z,23.40
2018-07-26T16:03:42.471Z,23.30
2018-07-26T16:08:39.451Z,23.20
2018-07-26T16:13:37.809Z,22.90
2018-07-26T16:18:33.073Z,22.80
2018-07-26T16:23:27.925Z,22.90
2018-07-26T16:28:23.643Z,23.60
2018-07-26T16:33:18.033Z,24.40
2018-07-26T16:38:14.149Z,24.90
2018-07-26T16:43:08.561Z,25.30
2018-07-26T16:48:03.757Z,25.30
2018-07-26T16:52:59.802Z,25.00
2018-07-26T16:57:55.844Z,25.30
2018-07-26T17:02:51.012Z,24.70
2018-07-26T17:07:43.635Z,26.00
2018-07-26T17:12:39.060Z,25.30
2018-07-26T17:17:35.217Z,25.30
2018-07-26T17:22:30.047Z,25.90
2018-07-26T17:27:25.116Z,25.80
2018-07-26T17:32:20.177Z,25.50
2018-07-26T17:37:15.183Z,26.00
2018-07-26T17:42:14.558Z,27.20
2018-07-26T17:47:10.719Z,26.90
2018-07-26T17:52:06.529Z,27.10
2018-07-26T17:57:01.292Z,27.80
2018-07-26T18:01:56.385Z,27.90
2018-07-26T18:06:51.338Z,28.80
2018-07-26T18:11:44.119Z,28.80
2018-07-26T18:16:39.631Z,29.80
2018-07-26T18:21:34.656Z,31.20
2018-07-26T18:26:29.722Z,32.50
2018-07-26T18:31:26.875Z,33.10
2018-07-26T18:36:18.728Z,33.70
2018-07-26T18:41:11.784Z,33.30
2018-07-26T18:46:07.241Z,34.30
2018-07-26T18:51:01.295Z,34.40
2018-07-26T18:55:54.388Z,34.70
2018-07-26T19:17:10.648Z,35.10
2018-07-26T19:22:06.737Z,35.60
2018-07-26T19:26:59.734Z,36.80
2018-07-26T19:31:53.275Z,37.60
2018-07-26T19:36:48.486Z,37.60
2018-07-26T19:41:44.197Z,36.90
2018-07-26T19:46:40.905Z,38.20
2018-07-26T19:51:34.789Z,38.50
2018-07-26T19:56:28.910Z,37.60
2018-07-26T20:01:26.301Z,36.10
2018-07-26T20:06:20.025Z,35.70
2018-07-26T20:11:14.593Z,35.60
2018-07-26T20:16:07.801Z,34.80
2018-07-26T20:21:01.212Z,34.30
2018-07-26T20:25:54.526Z,34.10
2018-07-26T20:30:48.075Z,33.20
2018-07-26T20:35:41.678Z,33.00
2018-07-26T20:40:35.254Z,32.60
2018-07-26T20:45:28.596Z,32.40
2018-07-26T20:50:22.070Z,32.90
2018-07-26T20:55:17.679Z,32.90
2018-07-26T21:00:11.786Z,32.70
2018-07-26T21:05:04.832Z,33.20
2018-07-26T21:09:58.264Z,33.10
2018-07-26T21:14:51.733Z,33.00
2018-07-26T21:19:47.143Z,33.30
2018-07-26T21:24:41.115Z,33.60
2018-07-26T21:29:35.260Z,33.60
2018-07-26T21:34:29.642Z,33.60
2018-07-26T21:39:22.993Z,33.90
2018-07-26T21:44:16.345Z,34.10
2018-07-26T21:49:09.752Z,34.50
2018-07-26T21:54:03.032Z,34.90
2018-07-26T21:58:56.240Z,35.30
2018-07-26T22:03:50.700Z,35.70
2018-07-26T22:08:44.062Z,36.00
2018-07-26T22:13:37.568Z,36.20
2018-07-26T22:18:33.614Z,36.20
2018-07-26T22:23:26.526Z,36.00
2018-07-26T22:28:19.964Z,36.30
2018-07-26T22:33:13.367Z,36.60
2018-07-26T22:38:07.783Z,36.40
2018-07-26T22:43:01.008Z,36.70
2018-07-26T22:47:55.556Z,36.80
2018-07-26T22:52:49.720Z,37.30
2018-07-26T22:57:42.961Z,37.10
2018-07-26T23:02:36.436Z,37.40
2018-07-26T23:07:30.704Z,37.30
2018-07-26T23:12:23.979Z,37.60
2018-07-26T23:17:19.200Z,37.40
2018-07-26T23:22:13.197Z,37.70
2018-07-26T23:27:07.386Z,38.00
2018-07-26T23:32:00.519Z,38.20
2018-07-26T23:36:55.356Z,38.40
2018-07-26T23:41:48.317Z,38.50
2018-07-26T23:46:41.587Z,38.50
2018-07-26T23:51:36.090Z,39.30
2018-07-26T23:56:30.120Z,39.60
